sensor_id;sensor_type;location;lat;lon;timestamp;P1;durP1;ratioP1;P2;durP2;ratioP2
55706;SDS011;41608;45.384;20.394;2022-09-21T00:01:08;6.70;;;3.72;;
55706;SDS011;41608;45.384;20.394;2022-09-21T00:03:35;5.03;;;3.25;;
55706;SDS011;41608;45.384;20.394;2022-09-21T00:06:05;4.93;;;3.55;;
55706;SDS011;41608;45.384;20.394;2022-09-21T00:08:32;7.65;;;4.03;;
55706;SDS011;41608;45.384;20.394;2022-09-21T00:10:58;5.70;;;3.90;;
55706;SDS011;41608;45.384;20.394;2022-09-21T00:13:24;5.50;;;3.58;;
55706;SDS011;41608;45.384;20.394;2022-09-21T00:15:52;5.20;;;3.67;;
55706;SDS011;41608;45.384;20.394;2022-09-21T00:18:18;6.40;;;3.40;;
55706;SDS011;41608;45.384;20.394;2022-09-21T00:20:44;5.43;;;3.85;;
55706;SDS011;41608;45.384;20.394;2022-09-21T00:23:10;5.30;;;3.42;;
55706;SDS011;41608;45.384;20.394;2022-09-21T00:25:36;6.22;;;4.10;;
55706;SDS011;41608;45.384;20.394;2022-09-21T00:28:02;5.13;;;3.58;;
55706;SDS011;41608;45.384;20.394;2022-09-21T00:30:29;5.28;;;3.83;;
55706;SDS011;41608;45.384;20.394;2022-09-21T00:32:55;6.57;;;3.65;;
55706;SDS011;41608;45.384;20.394;2022-09-21T00:35:21;5.25;;;3.72;;
55706;SDS011;41608;45.384;20.394;2022-09-21T00:37:47;6.05;;;4.07;;
55706;SDS011;41608;45.384;20.394;2022-09-21T00:40:13;5.90;;;3.33;;
55706;SDS011;41608;45.384;20.394;2022-09-21T00:42:39;4.78;;;3.40;;
55706;SDS011;41608;45.384;20.394;2022-09-21T00:45:05;5.47;;;3.45;;
55706;SDS011;41608;45.384;20.394;2022-09-21T00:47:39;6.88;;;4.15;;
55706;SDS011;41608;45.384;20.394;2022-09-21T00:50:10;6.05;;;4.00;;
55706;SDS011;41608;45.384;20.394;2022-09-21T00:52:38;6.40;;;3.63;;
55706;SDS011;41608;45.384;20.394;2022-09-21T00:57:31;5.57;;;3.67;;
55706;SDS011;41608;45.384;20.394;2022-09-21T01:00:00;4.45;;;3.63;;
55706;SDS011;41608;45.384;20.394;2022-09-21T01:02:26;7.13;;;3.78;;
55706;SDS011;41608;45.384;20.394;2022-09-21T01:04:52;6.13;;;4.18;;
55706;SDS011;41608;45.384;20.394;2022-09-21T01:07:29;6.72;;;4.35;;
55706;SDS011;41608;45.384;20.394;2022-09-21T01:09:56;10.63;;;5.32;;
55706;SDS011;41608;45.384;20.394;2022-09-21T01:20:28;6.97;;;5.00;;
55706;SDS011;41608;45.384;20.394;2022-09-21T01:31:10;5.57;;;4.45;;
55706;SDS011;41608;45.384;20.394;2022-09-21T01:33:38;7.32;;;4.93;;
55706;SDS011;41608;45.384;20.394;2022-09-21T01:36:08;5.63;;;4.40;;
55706;SDS011;41608;45.384;20.394;2022-09-21T01:38:41;6.68;;;4.35;;
55706;SDS011;41608;45.384;20.394;2022-09-21T01:41:09;8.68;;;4.63;;
55706;SDS011;41608;45.384;20.394;2022-09-21T01:43:38;7.15;;;4.53;;
55706;SDS011;41608;45.384;20.394;2022-09-21T01:46:06;8.15;;;4.97;;
55706;SDS011;41608;45.384;20.394;2022-09-21T01:48:35;6.30;;;4.95;;
55706;SDS011;41608;45.384;20.394;2022-09-21T01:51:03;5.72;;;3.95;;
55706;SDS011;41608;45.384;20.394;2022-09-21T01:53:32;7.05;;;4.60;;
55706;SDS011;41608;45.384;20.394;2022-09-21T01:56:04;7.03;;;4.40;;
55706;SDS011;41608;45.384;20.394;2022-09-21T02:01:07;6.55;;;4.45;;
55706;SDS011;41608;45.384;20.394;2022-09-21T02:03:36;9.07;;;4.28;;
55706;SDS011;41608;45.384;20.394;2022-09-21T02:06:03;6.68;;;4.07;;
55706;SDS011;41608;45.384;20.394;2022-09-21T02:08:30;7.47;;;3.85;;
55706;SDS011;41608;45.384;20.394;2022-09-21T02:10:57;5.68;;;4.07;;
55706;SDS011;41608;45.384;20.394;2022-09-21T02:13:23;7.28;;;3.65;;
55706;SDS011;41608;45.384;20.394;2022-09-21T02:20:59;7.10;;;4.78;;
55706;SDS011;41608;45.384;20.394;2022-09-21T02:23:33;6.45;;;3.95;;
55706;SDS011;41608;45.384;20.394;2022-09-21T02:26:07;5.80;;;3.88;;
55706;SDS011;41608;45.384;20.394;2022-09-21T02:33:42;5.00;;;3.92;;
55706;SDS011;41608;45.384;20.394;2022-09-21T02:38:48;6.40;;;4.32;;
55706;SDS011;41608;45.384;20.394;2022-09-21T02:41:24;7.28;;;4.10;;
55706;SDS011;41608;45.384;20.394;2022-09-21T02:49:06;6.13;;;3.53;;
55706;SDS011;41608;45.384;20.394;2022-09-21T02:51:38;5.43;;;4.07;;
55706;SDS011;41608;45.384;20.394;2022-09-21T02:54:05;5.38;;;3.63;;
55706;SDS011;41608;45.384;20.394;2022-09-21T02:56:33;6.95;;;3.83;;
55706;SDS011;41608;45.384;20.394;2022-09-21T02:59:00;5.20;;;3.67;;
55706;SDS011;41608;45.384;20.394;2022-09-21T03:01:28;7.78;;;4.05;;
55706;SDS011;41608;45.384;20.394;2022-09-21T03:03:55;6.35;;;3.67;;
55706;SDS011;41608;45.384;20.394;2022-09-21T03:06:21;5.57;;;3.85;;
55706;SDS011;41608;45.384;20.394;2022-09-21T03:08:47;7.35;;;4.13;;
55706;SDS011;41608;45.384;20.394;2022-09-21T03:11:17;6.78;;;4.22;;
55706;SDS011;41608;45.384;20.394;2022-09-21T03:13:43;5.28;;;4.10;;
55706;SDS011;41608;45.384;20.394;2022-09-21T03:16:09;7.05;;;4.95;;
55706;SDS011;41608;45.384;20.394;2022-09-21T03:18:35;5.32;;;3.80;;
55706;SDS011;41608;45.384;20.394;2022-09-21T03:21:03;8.27;;;4.25;;
55706;SDS011;41608;45.384;20.394;2022-09-21T03:23:29;5.40;;;3.75;;
55706;SDS011;41608;45.384;20.394;2022-09-21T03:25:55;5.95;;;3.63;;
55706;SDS011;41608;45.384;20.394;2022-09-21T03:28:21;8.80;;;5.00;;
55706;SDS011;41608;45.384;20.394;2022-09-21T03:30:48;5.80;;;4.05;;
55706;SDS011;41608;45.384;20.394;2022-09-21T03:33:14;7.18;;;4.75;;
55706;SDS011;41608;45.384;20.394;2022-09-21T03:35:40;7.28;;;4.22;;
55706;SDS011;41608;45.384;20.394;2022-09-21T03:38:06;6.20;;;4.45;;
55706;SDS011;41608;45.384;20.394;2022-09-21T03:40:33;6.65;;;4.20;;
55706;SDS011;41608;45.384;20.394;2022-09-21T03:42:59;7.78;;;4.55;;
55706;SDS011;41608;45.384;20.394;2022-09-21T03:45:25;6.00;;;4.47;;
55706;SDS011;41608;45.384;20.394;2022-09-21T03:47:53;8.85;;;5.15;;
55706;SDS011;41608;45.384;20.394;2022-09-21T03:50:21;7.25;;;5.43;;
55706;SDS011;41608;45.384;20.394;2022-09-21T03:52:47;6.90;;;3.95;;
55706;SDS011;41608;45.384;20.394;2022-09-21T03:55:13;6.35;;;4.30;;
55706;SDS011;41608;45.384;20.394;2022-09-21T03:57:39;5.53;;;3.80;;
55706;SDS011;41608;45.384;20.394;2022-09-21T04:00:06;5.82;;;4.18;;
55706;SDS011;41608;45.384;20.394;2022-09-21T04:02:33;6.05;;;3.97;;
55706;SDS011;41608;45.384;20.394;2022-09-21T04:04:59;5.82;;;4.40;;
55706;SDS011;41608;45.384;20.394;2022-09-21T04:07:29;6.95;;;4.65;;
55706;SDS011;41608;45.384;20.394;2022-09-21T04:09:57;7.07;;;4.32;;
55706;SDS011;41608;45.384;20.394;2022-09-21T04:12:23;6.65;;;4.85;;
55706;SDS011;41608;45.384;20.394;2022-09-21T04:14:49;6.57;;;4.43;;
55706;SDS011;41608;45.384;20.394;2022-09-21T04:17:15;8.48;;;5.15;;
55706;SDS011;41608;45.384;20.394;2022-09-21T04:19:42;7.75;;;5.32;;
55706;SDS011;41608;45.384;20.394;2022-09-21T04:22:12;7.72;;;4.72;;
55706;SDS011;41608;45.384;20.394;2022-09-21T04:24:38;6.20;;;4.80;;
55706;SDS011;41608;45.384;20.394;2022-09-21T04:27:05;8.45;;;5.72;;
55706;SDS011;41608;45.384;20.394;2022-09-21T04:29:31;7.95;;;5.60;;
55706;SDS011;41608;45.384;20.394;2022-09-21T04:31:57;11.60;;;5.70;;
55706;SDS011;41608;45.384;20.394;2022-09-21T04:34:23;9.00;;;6.10;;
55706;SDS011;41608;45.384;20.394;2022-09-21T04:36:50;9.60;;;5.63;;
55706;SDS011;41608;45.384;20.394;2022-09-21T04:39:18;9.02;;;5.85;;
55706;SDS011;41608;45.384;20.394;2022-09-21T04:41:44;8.10;;;6.10;;
55706;SDS011;41608;45.384;20.394;2022-09-21T04:44:10;9.18;;;5.88;;
55706;SDS011;41608;45.384;20.394;2022-09-21T04:46:36;7.97;;;6.47;;
55706;SDS011;41608;45.384;20.394;2022-09-21T04:49:02;9.45;;;5.82;;
55706;SDS011;41608;45.384;20.394;2022-09-21T04:51:28;10.05;;;5.97;;
55706;SDS011;41608;45.384;20.394;2022-09-21T04:53:55;10.13;;;6.53;;
55706;SDS011;41608;45.384;20.394;2022-09-21T04:56:21;9.32;;;6.22;;
55706;SDS011;41608;45.384;20.394;2022-09-21T04:58:47;10.27;;;6.13;;
55706;SDS011;41608;45.384;20.394;2022-09-21T05:01:13;8.20;;;6.10;;
55706;SDS011;41608;45.384;20.394;2022-09-21T05:03:39;10.38;;;6.13;;
55706;SDS011;41608;45.384;20.394;2022-09-21T05:06:05;11.77;;;6.88;;
55706;SDS011;41608;45.384;20.394;2022-09-21T05:08:32;10.18;;;6.05;;
55706;SDS011;41608;45.384;20.394;2022-09-21T05:11:17;10.55;;;6.32;;
55706;SDS011;41608;45.384;20.394;2022-09-21T05:13:43;9.20;;;6.10;;
55706;SDS011;41608;45.384;20.394;2022-09-21T05:16:09;9.38;;;5.45;;
55706;SDS011;41608;45.384;20.394;2022-09-21T05:18:36;11.50;;;5.80;;
55706;SDS011;41608;45.384;20.394;2022-09-21T05:21:02;8.10;;;5.65;;
55706;SDS011;41608;45.384;20.394;2022-09-21T05:23:30;8.38;;;5.72;;
55706;SDS011;41608;45.384;20.394;2022-09-21T05:25:57;9.77;;;5.28;;
55706;SDS011;41608;45.384;20.394;2022-09-21T05:28:23;10.07;;;5.20;;
55706;SDS011;41608;45.384;20.394;2022-09-21T05:30:56;8.45;;;5.28;;
55706;SDS011;41608;45.384;20.394;2022-09-21T05:33:23;8.02;;;5.50;;
55706;SDS011;41608;45.384;20.394;2022-09-21T05:38:17;7.03;;;4.93;;
55706;SDS011;41608;45.384;20.394;2022-09-21T05:40:44;7.93;;;5.50;;
55706;SDS011;41608;45.384;20.394;2022-09-21T05:43:11;9.93;;;5.50;;
55706;SDS011;41608;45.384;20.394;2022-09-21T05:45:39;12.25;;;5.70;;
55706;SDS011;41608;45.384;20.394;2022-09-21T05:48:15;7.32;;;5.55;;
55706;SDS011;41608;45.384;20.394;2022-09-21T05:50:51;7.07;;;4.88;;
55706;SDS011;41608;45.384;20.394;2022-09-21T05:53:39;6.85;;;5.28;;
55706;SDS011;41608;45.384;20.394;2022-09-21T05:56:12;7.78;;;5.18;;
55706;SDS011;41608;45.384;20.394;2022-09-21T06:01:23;9.23;;;6.13;;
55706;SDS011;41608;45.384;20.394;2022-09-21T06:03:51;9.13;;;6.57;;
55706;SDS011;41608;45.384;20.394;2022-09-21T06:06:18;10.32;;;6.50;;
55706;SDS011;41608;45.384;20.394;2022-09-21T06:08:44;10.90;;;5.90;;
55706;SDS011;41608;45.384;20.394;2022-09-21T06:11:10;10.55;;;7.00;;
55706;SDS011;41608;45.384;20.394;2022-09-21T06:13:36;12.73;;;7.07;;
55706;SDS011;41608;45.384;20.394;2022-09-21T06:16:05;11.00;;;7.63;;
55706;SDS011;41608;45.384;20.394;2022-09-21T06:18:35;14.05;;;6.90;;
55706;SDS011;41608;45.384;20.394;2022-09-21T06:21:01;8.30;;;6.68;;
55706;SDS011;41608;45.384;20.394;2022-09-21T06:23:27;8.38;;;6.18;;
55706;SDS011;41608;45.384;20.394;2022-09-21T06:25:53;10.00;;;7.40;;
55706;SDS011;41608;45.384;20.394;2022-09-21T06:28:19;10.77;;;7.75;;
55706;SDS011;41608;45.384;20.394;2022-09-21T06:30:55;11.00;;;7.47;;
55706;SDS011;41608;45.384;20.394;2022-09-21T06:33:21;12.02;;;7.70;;
55706;SDS011;41608;45.384;20.394;2022-09-21T06:35:55;9.02;;;7.28;;
55706;SDS011;41608;45.384;20.394;2022-09-21T06:38:25;13.32;;;9.07;;
55706;SDS011;41608;45.384;20.394;2022-09-21T06:40:51;10.88;;;7.88;;
55706;SDS011;41608;45.384;20.394;2022-09-21T06:43:18;11.20;;;8.02;;
55706;SDS011;41608;45.384;20.394;2022-09-21T06:45:51;15.85;;;9.73;;
55706;SDS011;41608;45.384;20.394;2022-09-21T06:48:17;14.52;;;8.68;;
55706;SDS011;41608;45.384;20.394;2022-09-21T06:50:43;12.95;;;8.95;;
55706;SDS011;41608;45.384;20.394;2022-09-21T06:53:09;8.90;;;6.75;;
55706;SDS011;41608;45.384;20.394;2022-09-21T06:55:35;18.50;;;13.10;;
55706;SDS011;41608;45.384;20.394;2022-09-21T06:58:01;14.98;;;10.02;;
55706;SDS011;41608;45.384;20.394;2022-09-21T07:00:28;14.07;;;9.40;;
55706;SDS011;41608;45.384;20.394;2022-09-21T07:02:54;13.25;;;8.13;;
55706;SDS011;41608;45.384;20.394;2022-09-21T07:05:20;9.95;;;8.18;;
55706;SDS011;41608;45.384;20.394;2022-09-21T07:07:46;11.50;;;7.97;;
55706;SDS011;41608;45.384;20.394;2022-09-21T07:10:13;11.90;;;7.53;;
55706;SDS011;41608;45.384;20.394;2022-09-21T07:12:39;10.23;;;7.90;;
55706;SDS011;41608;45.384;20.394;2022-09-21T07:15:05;12.23;;;7.72;;
55706;SDS011;41608;45.384;20.394;2022-09-21T07:17:36;10.25;;;7.35;;
55706;SDS011;41608;45.384;20.394;2022-09-21T07:20:03;11.38;;;7.80;;
55706;SDS011;41608;45.384;20.394;2022-09-21T07:22:32;10.63;;;7.75;;
55706;SDS011;41608;45.384;20.394;2022-09-21T07:24:58;19.42;;;8.18;;
55706;SDS011;41608;45.384;20.394;2022-09-21T07:27:26;26.48;;;17.98;;
55706;SDS011;41608;45.384;20.394;2022-09-21T07:29:52;11.00;;;8.60;;
55706;SDS011;41608;45.384;20.394;2022-09-21T07:32:18;11.43;;;8.70;;
55706;SDS011;41608;45.384;20.394;2022-09-21T07:34:45;13.15;;;9.73;;
55706;SDS011;41608;45.384;20.394;2022-09-21T07:37:11;12.98;;;9.75;;
55706;SDS011;41608;45.384;20.394;2022-09-21T07:39:38;15.13;;;11.32;;
55706;SDS011;41608;45.384;20.394;2022-09-21T07:42:04;14.52;;;9.95;;
55706;SDS011;41608;45.384;20.394;2022-09-21T07:44:30;13.65;;;9.35;;
55706;SDS011;41608;45.384;20.394;2022-09-21T07:46:57;14.98;;;9.85;;
55706;SDS011;41608;45.384;20.394;2022-09-21T07:49:23;15.32;;;10.70;;
55706;SDS011;41608;45.384;20.394;2022-09-21T07:51:49;15.80;;;10.85;;
55706;SDS011;41608;45.384;20.394;2022-09-21T07:54:15;16.70;;;11.23;;
55706;SDS011;41608;45.384;20.394;2022-09-21T07:56:41;14.07;;;10.90;;
55706;SDS011;41608;45.384;20.394;2022-09-21T07:59:27;15.38;;;10.20;;
55706;SDS011;41608;45.384;20.394;2022-09-21T08:01:56;13.45;;;10.13;;
55706;SDS011;41608;45.384;20.394;2022-09-21T08:04:22;12.35;;;9.20;;
55706;SDS011;41608;45.384;20.394;2022-09-21T08:06:48;16.15;;;10.10;;
55706;SDS011;41608;45.384;20.394;2022-09-21T08:09:14;13.35;;;8.65;;
55706;SDS011;41608;45.384;20.394;2022-09-21T08:11:40;12.27;;;8.98;;
55706;SDS011;41608;45.384;20.394;2022-09-21T08:14:09;12.27;;;8.10;;
55706;SDS011;41608;45.384;20.394;2022-09-21T08:16:36;13.27;;;9.20;;
55706;SDS011;41608;45.384;20.394;2022-09-21T08:19:05;16.70;;;9.38;;
55706;SDS011;41608;45.384;20.394;2022-09-21T08:21:31;12.68;;;8.82;;
55706;SDS011;41608;45.384;20.394;2022-09-21T08:23:58;14.20;;;9.90;;
55706;SDS011;41608;45.384;20.394;2022-09-21T08:26:24;14.15;;;9.73;;
55706;SDS011;41608;45.384;20.394;2022-09-21T08:28:51;12.02;;;9.38;;
55706;SDS011;41608;45.384;20.394;2022-09-21T08:31:24;13.80;;;10.13;;
55706;SDS011;41608;45.384;20.394;2022-09-21T08:33:50;14.52;;;10.25;;
55706;SDS011;41608;45.384;20.394;2022-09-21T08:36:17;15.73;;;11.55;;
55706;SDS011;41608;45.384;20.394;2022-09-21T08:38:43;17.45;;;11.57;;
55706;SDS011;41608;45.384;20.394;2022-09-21T08:41:12;14.73;;;12.45;;
55706;SDS011;41608;45.384;20.394;2022-09-21T08:43:39;16.00;;;11.25;;
55706;SDS011;41608;45.384;20.394;2022-09-21T08:46:09;17.70;;;13.50;;
55706;SDS011;41608;45.384;20.394;2022-09-21T08:48:38;14.20;;;9.20;;
55706;SDS011;41608;45.384;20.394;2022-09-21T08:51:08;15.55;;;11.52;;
55706;SDS011;41608;45.384;20.394;2022-09-21T08:53:40;15.32;;;10.95;;
55706;SDS011;41608;45.384;20.394;2022-09-21T08:56:11;19.33;;;11.73;;
55706;SDS011;41608;45.384;20.394;2022-09-21T08:58:37;18.00;;;12.60;;
55706;SDS011;41608;45.384;20.394;2022-09-21T09:06:22;17.08;;;11.35;;
55706;SDS011;41608;45.384;20.394;2022-09-21T09:17:20;15.68;;;11.18;;
55706;SDS011;41608;45.384;20.394;2022-09-21T09:19:49;14.38;;;11.15;;
55706;SDS011;41608;45.384;20.394;2022-09-21T09:22:17;15.05;;;10.93;;
55706;SDS011;41608;45.384;20.394;2022-09-21T09:24:48;17.15;;;12.13;;
55706;SDS011;41608;45.384;20.394;2022-09-21T09:27:19;17.67;;;13.68;;
55706;SDS011;41608;45.384;20.394;2022-09-21T09:32:14;16.48;;;12.13;;
55706;SDS011;41608;45.384;20.394;2022-09-21T09:34:42;14.98;;;10.52;;
55706;SDS011;41608;45.384;20.394;2022-09-21T09:37:11;14.50;;;10.68;;
55706;SDS011;41608;45.384;20.394;2022-09-21T09:39:38;16.73;;;12.23;;
55706;SDS011;41608;45.384;20.394;2022-09-21T09:52:23;15.30;;;12.05;;
55706;SDS011;41608;45.384;20.394;2022-09-21T09:54:50;15.85;;;11.85;;
55706;SDS011;41608;45.384;20.394;2022-09-21T09:57:19;16.65;;;12.60;;
55706;SDS011;41608;45.384;20.394;2022-09-21T09:59:51;18.25;;;11.73;;
55706;SDS011;41608;45.384;20.394;2022-09-21T10:02:22;21.55;;;13.27;;
55706;SDS011;41608;45.384;20.394;2022-09-21T10:04:55;16.85;;;11.20;;
55706;SDS011;41608;45.384;20.394;2022-09-21T10:10:00;13.52;;;10.90;;
55706;SDS011;41608;45.384;20.394;2022-09-21T10:12:27;13.88;;;11.07;;
55706;SDS011;41608;45.384;20.394;2022-09-21T10:14:56;13.43;;;11.63;;
55706;SDS011;41608;45.384;20.394;2022-09-21T10:17:25;14.63;;;12.13;;
55706;SDS011;41608;45.384;20.394;2022-09-21T10:20:02;12.52;;;10.43;;
55706;SDS011;41608;45.384;20.394;2022-09-21T10:22:28;14.73;;;11.05;;
55706;SDS011;41608;45.384;20.394;2022-09-21T10:24:54;14.00;;;10.85;;
55706;SDS011;41608;45.384;20.394;2022-09-21T10:27:32;14.10;;;10.73;;
55706;SDS011;41608;45.384;20.394;2022-09-21T10:29:58;12.13;;;8.63;;
55706;SDS011;41608;45.384;20.394;2022-09-21T10:32:25;8.45;;;6.47;;
55706;SDS011;41608;45.384;20.394;2022-09-21T10:37:33;7.30;;;6.32;;
55706;SDS011;41608;45.384;20.394;2022-09-21T10:40:02;8.77;;;6.40;;
55706;SDS011;41608;45.384;20.394;2022-09-21T10:42:30;11.55;;;7.22;;
55706;SDS011;41608;45.384;20.394;2022-09-21T10:45:12;10.25;;;6.97;;
55706;SDS011;41608;45.384;20.394;2022-09-21T10:47:43;8.90;;;7.30;;
55706;SDS011;41608;45.384;20.394;2022-09-21T10:50:21;10.15;;;8.07;;
55706;SDS011;41608;45.384;20.394;2022-09-21T10:52:48;13.68;;;9.18;;
55706;SDS011;41608;45.384;20.394;2022-09-21T10:55:18;12.57;;;10.27;;
55706;SDS011;41608;45.384;20.394;2022-09-21T10:57:44;10.80;;;9.18;;
55706;SDS011;41608;45.384;20.394;2022-09-21T11:02:46;12.80;;;11.15;;
55706;SDS011;41608;45.384;20.394;2022-09-21T11:05:14;15.57;;;11.77;;
55706;SDS011;41608;45.384;20.394;2022-09-21T11:13:04;17.92;;;11.93;;
55706;SDS011;41608;45.384;20.394;2022-09-21T11:15:39;14.13;;;11.68;;
55706;SDS011;41608;45.384;20.394;2022-09-21T11:25:49;14.27;;;11.23;;
55706;SDS011;41608;45.384;20.394;2022-09-21T11:28:21;14.85;;;11.15;;
55706;SDS011;41608;45.384;20.394;2022-09-21T11:33:50;17.15;;;11.52;;
55706;SDS011;41608;45.384;20.394;2022-09-21T11:36:37;11.48;;;9.68;;
55706;SDS011;41608;45.384;20.394;2022-09-21T11:44:24;12.45;;;10.07;;
55706;SDS011;41608;45.384;20.394;2022-09-21T11:49:38;12.30;;;9.88;;
55706;SDS011;41608;45.384;20.394;2022-09-21T11:52:11;13.18;;;9.38;;
55706;SDS011;41608;45.384;20.394;2022-09-21T12:02:26;8.45;;;4.25;;
55706;SDS011;41608;45.384;20.394;2022-09-21T12:10:34;6.50;;;4.47;;
55706;SDS011;41608;45.384;20.394;2022-09-21T12:15:52;8.70;;;4.22;;
55706;SDS011;41608;45.384;20.394;2022-09-21T12:18:24;8.10;;;5.32;;
55706;SDS011;41608;45.384;20.394;2022-09-21T12:23:41;9.88;;;6.38;;
55706;SDS011;41608;45.384;20.394;2022-09-21T12:26:06;10.75;;;5.78;;
55706;SDS011;41608;45.384;20.394;2022-09-21T12:28:39;8.05;;;5.07;;
55706;SDS011;41608;45.384;20.394;2022-09-21T12:33:50;10.32;;;5.05;;
55706;SDS011;41608;45.384;20.394;2022-09-21T12:36:37;7.82;;;4.82;;
55706;SDS011;41608;45.384;20.394;2022-09-21T12:44:31;14.68;;;6.78;;
55706;SDS011;41608;45.384;20.394;2022-09-21T12:47:08;13.20;;;8.48;;
55706;SDS011;41608;45.384;20.394;2022-09-21T12:49:37;8.48;;;5.68;;
55706;SDS011;41608;45.384;20.394;2022-09-21T12:52:04;8.55;;;5.50;;
55706;SDS011;41608;45.384;20.394;2022-09-21T12:54:55;10.82;;;6.97;;
55706;SDS011;41608;45.384;20.394;2022-09-21T13:02:38;10.05;;;5.30;;
55706;SDS011;41608;45.384;20.394;2022-09-21T13:10:22;7.78;;;5.50;;
55706;SDS011;41608;45.384;20.394;2022-09-21T13:13:00;7.20;;;5.22;;
55706;SDS011;41608;45.384;20.394;2022-09-21T13:15:31;5.47;;;4.35;;
55706;SDS011;41608;45.384;20.394;2022-09-21T13:17:59;7.25;;;4.38;;
55706;SDS011;41608;45.384;20.394;2022-09-21T13:20:25;9.00;;;6.18;;
55706;SDS011;41608;45.384;20.394;2022-09-21T13:22:57;8.50;;;5.85;;
55706;SDS011;41608;45.384;20.394;2022-09-21T13:25:25;12.13;;;6.50;;
55706;SDS011;41608;45.384;20.394;2022-09-21T13:30:43;13.57;;;7.88;;
55706;SDS011;41608;45.384;20.394;2022-09-21T13:33:31;8.77;;;6.95;;
55706;SDS011;41608;45.384;20.394;2022-09-21T13:36:03;12.82;;;5.30;;
55706;SDS011;41608;45.384;20.394;2022-09-21T13:38:33;7.22;;;4.90;;
55706;SDS011;41608;45.384;20.394;2022-09-21T13:43:59;12.05;;;6.35;;
55706;SDS011;41608;45.384;20.394;2022-09-21T13:46:44;13.00;;;7.20;;
55706;SDS011;41608;45.384;20.394;2022-09-21T13:54:15;6.45;;;4.13;;
55706;SDS011;41608;45.384;20.394;2022-09-21T13:56:41;5.10;;;2.88;;
55706;SDS011;41608;45.384;20.394;2022-09-21T13:59:15;5.78;;;4.10;;
55706;SDS011;41608;45.384;20.394;2022-09-21T14:01:44;4.93;;;3.22;;
55706;SDS011;41608;45.384;20.394;2022-09-21T14:04:22;5.07;;;3.42;;
55706;SDS011;41608;45.384;20.394;2022-09-21T14:06:49;4.45;;;2.60;;
55706;SDS011;41608;45.384;20.394;2022-09-21T14:11:46;3.28;;;2.28;;
55706;SDS011;41608;45.384;20.394;2022-09-21T14:22:06;6.40;;;4.20;;
55706;SDS011;41608;45.384;20.394;2022-09-21T14:24:38;5.20;;;3.50;;
55706;SDS011;41608;45.384;20.394;2022-09-21T14:27:24;6.28;;;3.47;;
55706;SDS011;41608;45.384;20.394;2022-09-21T14:29:55;5.53;;;3.08;;
55706;SDS011;41608;45.384;20.394;2022-09-21T14:32:32;7.40;;;3.05;;
55706;SDS011;41608;45.384;20.394;2022-09-21T14:35:06;3.53;;;2.20;;
55706;SDS011;41608;45.384;20.394;2022-09-21T14:37:36;5.78;;;3.03;;
55706;SDS011;41608;45.384;20.394;2022-09-21T14:43:05;4.07;;;3.10;;
55706;SDS011;41608;45.384;20.394;2022-09-21T14:48:05;4.38;;;2.88;;
55706;SDS011;41608;45.384;20.394;2022-09-21T14:50:34;4.63;;;3.50;;
55706;SDS011;41608;45.384;20.394;2022-09-21T14:58:19;8.48;;;3.75;;
55706;SDS011;41608;45.384;20.394;2022-09-21T15:00:48;6.82;;;4.10;;
55706;SDS011;41608;45.384;20.394;2022-09-21T15:05:43;11.18;;;3.72;;
55706;SDS011;41608;45.384;20.394;2022-09-21T15:11:16;7.85;;;4.85;;
55706;SDS011;41608;45.384;20.394;2022-09-21T15:13:48;10.30;;;3.97;;
55706;SDS011;41608;45.384;20.394;2022-09-21T15:16:18;5.50;;;4.10;;
55706;SDS011;41608;45.384;20.394;2022-09-21T15:18:48;8.18;;;4.68;;
55706;SDS011;41608;45.384;20.394;2022-09-21T15:21:23;6.35;;;4.22;;
55706;SDS011;41608;45.384;20.394;2022-09-21T15:23:50;8.48;;;4.57;;
55706;SDS011;41608;45.384;20.394;2022-09-21T15:26:35;9.48;;;5.05;;
55706;SDS011;41608;45.384;20.394;2022-09-21T15:29:04;4.45;;;3.35;;
55706;SDS011;41608;45.384;20.394;2022-09-21T15:31:34;8.15;;;3.83;;
55706;SDS011;41608;45.384;20.394;2022-09-21T15:34:03;6.65;;;4.95;;
55706;SDS011;41608;45.384;20.394;2022-09-21T15:36:29;9.73;;;7.43;;
55706;SDS011;41608;45.384;20.394;2022-09-21T15:38:55;10.35;;;8.18;;
55706;SDS011;41608;45.384;20.394;2022-09-21T15:44:12;7.20;;;5.35;;
55706;SDS011;41608;45.384;20.394;2022-09-21T15:46:42;5.65;;;4.72;;
55706;SDS011;41608;45.384;20.394;2022-09-21T15:49:14;4.82;;;3.42;;
55706;SDS011;41608;45.384;20.394;2022-09-21T15:51:46;5.57;;;4.13;;
55706;SDS011;41608;45.384;20.394;2022-09-21T15:56:56;5.15;;;3.85;;
55706;SDS011;41608;45.384;20.394;2022-09-21T15:59:23;5.28;;;4.15;;
55706;SDS011;41608;45.384;20.394;2022-09-21T16:01:50;5.25;;;4.40;;
55706;SDS011;41608;45.384;20.394;2022-09-21T16:04:18;5.85;;;4.53;;
55706;SDS011;41608;45.384;20.394;2022-09-21T16:06:46;10.73;;;5.85;;
55706;SDS011;41608;45.384;20.394;2022-09-21T16:11:50;9.57;;;5.80;;
55706;SDS011;41608;45.384;20.394;2022-09-21T16:14:17;8.60;;;5.40;;
55706;SDS011;41608;45.384;20.394;2022-09-21T16:22:13;9.75;;;6.78;;
55706;SDS011;41608;45.384;20.394;2022-09-21T16:24:50;11.25;;;6.32;;
55706;SDS011;41608;45.384;20.394;2022-09-21T16:27:17;9.40;;;7.40;;
55706;SDS011;41608;45.384;20.394;2022-09-21T16:29:44;7.57;;;6.25;;
55706;SDS011;41608;45.384;20.394;2022-09-21T16:32:19;9.77;;;7.43;;
55706;SDS011;41608;45.384;20.394;2022-09-21T16:34:50;11.43;;;7.13;;
55706;SDS011;41608;45.384;20.394;2022-09-21T16:39:52;5.57;;;4.55;;
55706;SDS011;41608;45.384;20.394;2022-09-21T16:42:18;11.30;;;6.30;;
55706;SDS011;41608;45.384;20.394;2022-09-21T16:44:45;8.55;;;5.68;;
55706;SDS011;41608;45.384;20.394;2022-09-21T16:47:13;8.57;;;6.45;;
55706;SDS011;41608;45.384;20.394;2022-09-21T16:49:39;10.43;;;7.60;;
55706;SDS011;41608;45.384;20.394;2022-09-21T16:52:05;13.25;;;10.35;;
55706;SDS011;41608;45.384;20.394;2022-09-21T16:54:32;11.82;;;7.97;;
55706;SDS011;41608;45.384;20.394;2022-09-21T16:57:02;12.15;;;7.35;;
55706;SDS011;41608;45.384;20.394;2022-09-21T16:59:29;9.77;;;7.50;;
55706;SDS011;41608;45.384;20.394;2022-09-21T17:01:57;10.65;;;8.25;;
55706;SDS011;41608;45.384;20.394;2022-09-21T17:04:24;11.73;;;8.15;;
55706;SDS011;41608;45.384;20.394;2022-09-21T17:06:51;9.88;;;8.50;;
55706;SDS011;41608;45.384;20.394;2022-09-21T17:09:19;10.57;;;7.90;;
55706;SDS011;41608;45.384;20.394;2022-09-21T17:11:45;11.13;;;7.15;;
55706;SDS011;41608;45.384;20.394;2022-09-21T17:14:12;10.50;;;8.43;;
55706;SDS011;41608;45.384;20.394;2022-09-21T17:16:47;10.77;;;6.72;;
55706;SDS011;41608;45.384;20.394;2022-09-21T17:19:14;13.48;;;7.78;;
55706;SDS011;41608;45.384;20.394;2022-09-21T17:21:44;12.32;;;7.88;;
55706;SDS011;41608;45.384;20.394;2022-09-21T17:24:11;16.42;;;10.40;;
55706;SDS011;41608;45.384;20.394;2022-09-21T17:26:37;13.10;;;9.82;;
55706;SDS011;41608;45.384;20.394;2022-09-21T17:29:07;12.65;;;11.15;;
55706;SDS011;41608;45.384;20.394;2022-09-21T17:31:40;16.25;;;11.45;;
55706;SDS011;41608;45.384;20.394;2022-09-21T17:34:09;15.88;;;10.60;;
55706;SDS011;41608;45.384;20.394;2022-09-21T17:36:36;15.70;;;10.68;;
55706;SDS011;41608;45.384;20.394;2022-09-21T17:39:02;15.48;;;10.95;;
55706;SDS011;41608;45.384;20.394;2022-09-21T17:44:17;14.13;;;9.32;;
55706;SDS011;41608;45.384;20.394;2022-09-21T17:49:16;9.02;;;7.43;;
55706;SDS011;41608;45.384;20.394;2022-09-21T17:51:42;10.95;;;7.90;;
55706;SDS011;41608;45.384;20.394;2022-09-21T17:54:27;10.38;;;8.73;;